Time;durP1;ratioP1;P1;durP2;ratioP2;P2;SDS_P1;SDS_P2;PMS_P1;PMS_P2;Temp;Humidity;BMP_temperature;BMP_pressure;BME280_temperature;BME280_humidity;BME280_pressure;Samples;Min_cycle;Max_cycle;Signal;HPM_P1;HPM_P2
2022/10/13 00:56:27;;;;;;;0.20;0.20;;;10.60;99.90;;;;;;5180468;23;20115;-77
2022/10/13 00:58:54;;;;;;;0.17;0.17;;;10.60;99.90;;;;;;4928730;29;20059;-77
2022/10/13 01:01:23;;;;;;;0.20;0.20;;;10.50;99.90;;;;;;4926973;29;20039;-76
2022/10/13 01:03:48;;;;;;;0.20;0.20;;;10.60;99.90;;;;;;4921062;29;20439;-76
2022/10/13 01:06:16;;;;;;;0.20;0.20;;;10.60;99.90;;;;;;4930607;29;20062;-76
2022/10/13 01:08:41;;;;;;;0.13;0.13;;;10.60;99.90;;;;;;4936771;29;20068;-77
2022/10/13 01:11:09;;;;;;;0.20;0.20;;;10.60;99.90;;;;;;4930725;29;20047;-76
2022/10/13 02:39:52;;;;;;;0.20;0.20;;;10.20;99.90;;;;;;5391862;23;20048;-75
2022/10/13 02:42:18;;;;;;;0.17;0.17;;;10.20;99.90;;;;;;4906246;29;20051;-77
2022/10/13 02:44:43;;;;;;;0.20;0.20;;;10.20;99.90;;;;;;4927380;29;20419;-77
2022/10/13 02:47:09;;;;;;;0.20;0.20;;;10.20;99.90;;;;;;4925392;29;20036;-77
2022/10/13 02:49:34;;;;;;;0.20;0.20;;;10.20;99.90;;;;;;4931125;29;20111;-77
2022/10/13 02:52:00;;;;;;;0.20;0.20;;;10.20;99.90;;;;;;4927062;29;20122;-78
2022/10/13 02:54:25;;;;;;;0.10;0.10;;;10.20;99.90;;;;;;4906352;29;20056;-76
2022/10/13 02:56:51;;;;;;;0.15;0.15;;;10.20;99.90;;;;;;4927755;29;20044;-77
2022/10/13 02:59:17;;;;;;;0.10;0.10;;;10.10;99.90;;;;;;4904557;29;20048;-77
2022/10/13 04:10:09;;;;;;;0.20;0.20;;;10.30;99.90;;;;;;5295327;23;20049;-78
2022/10/13 04:21:34;;;;;;;0.20;0.20;;;10.30;99.90;;;;;;5048699;23;20053;-77
2022/10/13 04:27:37;;;;;;;0.10;0.10;;;9.30;99.90;;;;;;5077776;23;20058;-79
2022/10/13 04:30:08;;;;;;;0.20;0.20;;;10.40;99.90;;;;;;4946080;29;20047;-78
2022/10/13 04:32:34;;;;;;;0.20;0.20;;;10.40;99.90;;;;;;4933836;28;20157;-79
2022/10/13 04:34:59;;;;;;;0.20;0.20;;;10.40;99.90;;;;;;4927783;29;20051;-78
2022/10/13 04:37:25;;;;;;;0.20;0.20;;;10.40;99.90;;;;;;4928381;29;20601;-79
2022/10/13 04:39:51;;;;;;;0.20;0.20;;;10.40;99.90;;;;;;4945955;29;20047;-79
2022/10/13 04:42:16;;;;;;;0.20;0.20;;;10.90;99.90;;;;;;4925231;29;20447;-78
2022/10/13 04:44:43;;;;;;;0.10;0.10;;;10.80;99.90;;;;;;4929246;29;20411;-78
2022/10/13 04:47:08;;;;;;;0.20;0.20;;;10.40;99.90;;;;;;4937033;29;20563;-79
2022/10/13 05:37:04;;;;;;;;;;;;;;;;;;;;;
2022/10/13 05:54:50;;;;;;;0.13;0.13;;;10.50;99.90;;;;;;4833670;29;20111;-78
2022/10/13 06:01:47;;;;;;;0.20;0.20;;;10.60;99.90;;;;;;4857877;29;20379;-78
2022/10/13 06:04:37;;;;;;;0.10;0.10;;;10.60;99.90;;;;;;4848969;29;20295;-77
2022/10/13 06:07:03;;;;;;;0.17;0.17;;;10.60;99.90;;;;;;4853301;29;20041;-78
2022/10/13 06:17:55;;;;;;;0.20;0.20;;;10.60;99.90;;;;;;4951721;28;20430;-78
2022/10/13 06:20:45;;;;;;;0.20;0.20;;;10.60;99.90;;;;;;4898633;29;20540;-78
2022/10/13 06:34:02;;;;;;;0.17;0.17;;;10.60;99.90;;;;;;4895027;29;20126;-77
2022/10/13 06:36:49;;;;;;;0.20;0.20;;;11.30;99.90;;;;;;4942110;28;20321;-78
2022/10/13 06:39:14;;;;;;;0.10;0.10;;;10.70;99.90;;;;;;4921290;28;20048;-78
2022/10/13 06:42:00;;;;;;;0.20;0.20;;;10.80;99.90;;;;;;4956963;28;20042;-78
2022/10/13 06:44:25;;;;;;;0.10;0.10;;;10.70;99.90;;;;;;4949974;28;20049;-77
2022/10/13 06:46:51;;;;;;;0.10;0.10;;;10.80;99.90;;;;;;4956104;28;20046;-78
2022/10/13 06:49:17;;;;;;;0.20;0.20;;;10.80;99.90;;;;;;4955465;28;20043;-78
2022/10/13 06:51:43;;;;;;;0.10;0.10;;;10.80;99.90;;;;;;4942282;28;20042;-78
2022/10/13 06:54:08;;;;;;;0.20;0.20;;;10.80;99.90;;;;;;4927943;29;20143;-78
2022/10/13 06:56:34;;;;;;;0.20;0.20;;;10.90;99.90;;;;;;4947314;28;20047;-77
2022/10/13 06:58:59;;;;;;;0.10;0.10;;;10.90;99.90;;;;;;4955594;28;20130;-79
2022/10/13 07:01:25;;;;;;;0.15;0.15;;;10.90;99.90;;;;;;4951245;28;20035;-78
2022/10/13 07:03:54;;;;;;;0.10;0.10;;;11.00;99.90;;;;;;4940554;28;20050;-78
2022/10/13 07:06:22;;;;;;;0.10;0.10;;;11.00;99.90;;;;;;4965317;28;20039;-78
2022/10/13 07:08:48;;;;;;;0.20;0.20;;;11.00;99.90;;;;;;4953538;28;20050;-78
2022/10/13 07:11:17;;;;;;;0.20;0.20;;;11.10;99.90;;;;;;4941518;28;20142;-78
2022/10/13 07:14:04;;;;;;;0.10;0.10;;;11.10;99.90;;;;;;4956355;28;20058;-77
2022/10/13 07:16:29;;;;;;;0.20;0.20;;;11.10;99.90;;;;;;4942481;28;20102;-78
2022/10/13 07:18:55;;;;;;;0.10;0.10;;;11.20;99.90;;;;;;4942835;28;20038;-77
2022/10/13 07:21:21;;;;;;;0.20;0.20;;;11.20;99.90;;;;;;4946980;28;20480;-77
2022/10/13 07:23:47;;;;;;;0.20;0.20;;;11.20;99.90;;;;;;4924248;29;20804;-77
2022/10/13 07:26:14;;;;;;;0.20;0.20;;;11.30;99.90;;;;;;4953623;28;20101;-78
2022/10/13 07:28:41;;;;;;;0.20;0.20;;;11.30;99.90;;;;;;4955018;28;20062;-79
2022/10/13 07:31:18;;;;;;;0.15;0.15;;;11.40;99.90;;;;;;4954184;28;20423;-78
2022/10/13 07:33:46;;;;;;;0.20;0.20;;;11.40;99.90;;;;;;4946889;28;20050;-77
2022/10/13 07:36:12;;;;;;;0.20;0.20;;;11.50;99.90;;;;;;4938390;28;20509;-78
2022/10/13 07:38:39;;;;;;;0.15;0.15;;;11.40;99.90;;;;;;4953434;28;20066;-79
2022/10/13 07:41:07;;;;;;;0.10;0.10;;;11.50;99.90;;;;;;4955376;28;20090;-78
2022/10/13 07:43:33;;;;;;;0.20;0.20;;;11.50;99.90;;;;;;4943800;28;20049;-78
2022/10/13 07:46:00;;;;;;;0.10;0.10;;;11.60;99.90;;;;;;4959828;28;20484;-77
2022/10/13 07:48:27;;;;;;;0.20;0.20;;;11.60;99.90;;;;;;4950947;28;20039;-76
2022/10/13 07:50:52;;;;;;;0.20;0.20;;;11.60;99.90;;;;;;4953485;28;20043;-77
2022/10/13 07:53:20;;;;;;;0.10;0.10;;;11.70;99.90;;;;;;4933677;28;20126;-80
2022/10/13 07:55:46;;;;;;;0.20;0.20;;;11.70;99.90;;;;;;4946912;28;20138;-78
2022/10/13 07:58:12;;;;;;;0.20;0.20;;;11.70;99.90;;;;;;4927536;28;20070;-77
2022/10/13 08:00:37;;;;;;;0.20;0.20;;;11.70;99.90;;;;;;4967401;28;20042;-78
2022/10/13 08:03:03;;;;;;;0.20;0.20;;;11.70;99.90;;;;;;4952148;28;20039;-79
2022/10/13 08:05:28;;;;;;;0.20;0.20;;;11.80;99.90;;;;;;4951295;28;20050;-78
2022/10/13 08:07:54;;;;;;;0.10;0.10;;;11.80;99.90;;;;;;4932533;28;20058;-79
2022/10/13 08:10:20;;;;;;;0.20;0.20;;;11.90;99.90;;;;;;4939614;28;20110;-80
2022/10/13 08:12:46;;;;;;;0.20;0.20;;;11.90;99.90;;;;;;4953595;28;20074;-79
2022/10/13 08:15:12;;;;;;;0.20;0.20;;;11.90;99.90;;;;;;4955795;28;20049;-80
2022/10/13 08:17:40;;;;;;;0.20;0.20;;;12.00;99.90;;;;;;4934588;28;20550;-78
2022/10/13 08:20:06;;;;;;;0.17;0.17;;;12.00;99.90;;;;;;4923158;28;20047;-77
2022/10/13 08:22:33;;;;;;;0.17;0.17;;;12.00;99.90;;;;;;4956893;28;20043;-79
2022/10/13 08:25:02;;;;;;;0.20;0.20;;;12.00;99.90;;;;;;4948869;28;20526;-77
2022/10/13 08:27:31;;;;;;;0.10;0.10;;;12.10;99.90;;;;;;4927994;28;20055;-77
2022/10/13 08:29:56;;;;;;;0.20;0.20;;;12.10;99.90;;;;;;4943684;29;20098;-77
2022/10/13 08:32:22;;;;;;;0.20;0.20;;;12.20;99.90;;;;;;4951305;28;20047;-77
2022/10/13 08:34:48;;;;;;;0.10;0.10;;;12.00;99.90;;;;;;4920370;28;20392;-78
2022/10/13 08:37:18;;;;;;;0.20;0.20;;;12.10;99.90;;;;;;4934928;28;20046;-77
2022/10/13 08:39:47;;;;;;;0.52;0.38;;;12.10;99.90;;;;;;4915212;28;20106;-77
2022/10/13 08:42:20;;;;;;;0.15;0.15;;;12.20;99.90;;;;;;4924360;28;20091;-77
2022/10/13 08:45:02;;;;;;;0.22;0.22;;;12.20;99.90;;;;;;4932583;28;20047;-77
2022/10/13 08:48:00;;;;;;;0.20;0.20;;;12.10;99.90;;;;;;4917512;28;20067;-77
2022/10/13 08:50:29;;;;;;;0.17;0.17;;;12.10;99.90;;;;;;4915073;28;20126;-76
2022/10/13 08:52:59;;;;;;;0.10;0.10;;;12.20;99.90;;;;;;4917483;29;20043;-77
2022/10/13 08:55:30;;;;;;;0.20;0.20;;;12.20;99.90;;;;;;4935334;28;20055;-78
2022/10/13 08:57:57;;;;;;;0.20;0.20;;;12.30;99.90;;;;;;4935185;28;20071;-78
2022/10/13 09:00:22;;;;;;;0.20;0.20;;;12.20;99.90;;;;;;4916853;28;20047;-78
2022/10/13 09:02:49;;;;;;;0.20;0.20;;;12.20;99.90;;;;;;4935609;28;20550;-78
2022/10/13 09:05:30;;;;;;;0.20;0.20;;;12.30;99.90;;;;;;4913347;28;20058;-77
2022/10/13 09:07:58;;;;;;;0.10;0.10;;;12.30;99.90;;;;;;4938012;28;20062;-76
2022/10/13 09:10:24;;;;;;;0.20;0.20;;;12.30;99.90;;;;;;4933082;28;20091;-77
2022/10/13 09:12:50;;;;;;;0.10;0.10;;;12.40;99.90;;;;;;4916052;28;20123;-76
2022/10/13 09:15:19;;;;;;;0.20;0.20;;;12.40;99.90;;;;;;4934913;28;20054;-77
2022/10/13 09:18:09;;;;;;;0.20;0.20;;;12.40;99.90;;;;;;4939852;28;20046;-77
2022/10/13 09:20:38;;;;;;;0.17;0.17;;;12.40;99.90;;;;;;4939271;28;20055;-77
2022/10/13 09:23:14;;;;;;;0.20;0.20;;;12.40;99.90;;;;;;4920353;28;20052;-77
2022/10/13 09:25:42;;;;;;;0.10;0.10;;;12.50;99.90;;;;;;4940056;28;20091;-76
2022/10/13 09:28:15;;;;;;;0.20;0.20;;;12.50;99.90;;;;;;4920493;28;20067;-76
2022/10/13 09:30:48;;;;;;;0.10;0.10;;;12.50;99.90;;;;;;4931799;28;20183;-76
2022/10/13 09:33:23;;;;;;;0.13;0.13;;;12.60;99.90;;;;;;4950175;28;20388;-76
2022/10/13 09:35:55;;;;;;;0.20;0.20;;;12.60;99.90;;;;;;4948423;28;20057;-78
2022/10/13 09:38:25;;;;;;;0.10;0.10;;;12.60;99.90;;;;;;4935623;28;20071;-79
2022/10/13 09:41:09;;;;;;;0.10;0.10;;;12.70;99.90;;;;;;4924628;28;20058;-79
2022/10/13 09:43:46;;;;;;;0.20;0.20;;;12.70;99.90;;;;;;4937397;28;20047;-76
2022/10/13 09:46:30;;;;;;;0.20;0.20;;;12.60;99.90;;;;;;4936683;28;20047;-76
2022/10/13 09:49:03;;;;;;;0.10;0.10;;;12.70;99.90;;;;;;4922070;28;20102;-77
2022/10/13 09:51:37;;;;;;;0.10;0.10;;;12.70;99.90;;;;;;4941429;29;20078;-76
2022/10/13 09:54:05;;;;;;;0.20;0.20;;;12.70;99.90;;;;;;4962179;28;20054;-77
2022/10/13 09:56:37;;;;;;;0.20;0.20;;;12.70;99.90;;;;;;4952986;28;20549;-76
2022/10/13 09:59:46;;;;;;;0.10;0.10;;;12.80;99.90;;;;;;4940898;28;20122;-78
2022/10/13 10:02:33;;;;;;;0.10;0.10;;;12.80;99.90;;;;;;4912012;29;20075;-77
2022/10/13 10:05:17;;;;;;;0.20;0.20;;;12.80;99.90;;;;;;4952049;28;20050;-77
2022/10/13 10:07:43;;;;;;;0.10;0.10;;;12.90;99.90;;;;;;4951132;28;20105;-76
2022/10/13 10:10:24;;;;;;;0.10;0.10;;;12.90;99.90;;;;;;4957664;28;20097;-77
2022/10/13 10:12:50;;;;;;;0.20;0.20;;;12.90;99.90;;;;;;4934923;28;20055;-77
2022/10/13 10:15:49;;;;;;;0.20;0.20;;;13.00;99.90;;;;;;4947664;28;20043;-76
2022/10/13 10:18:47;;;;;;;0.20;0.20;;;13.00;99.90;;;;;;4893280;28;20532;-77
2022/10/13 10:21:51;;;;;;;0.10;0.10;;;13.10;99.90;;;;;;4953110;28;20046;-77
2022/10/13 10:24:47;;;;;;;0.20;0.20;;;13.10;99.90;;;;;;4957291;28;20307;-76
2022/10/13 10:27:30;;;;;;;0.20;0.20;;;13.20;99.90;;;;;;4944608;28;20051;-77
2022/10/13 10:30:02;;;;;;;0.30;0.30;;;13.30;99.90;;;;;;4941433;28;20053;-77
2022/10/13 10:32:59;;;;;;;0.20;0.20;;;13.40;99.90;;;;;;4965359;28;20035;-77
2022/10/13 10:35:55;;;;;;;0.20;0.20;;;13.40;99.90;;;;;;4950602;28;20377;-78
2022/10/13 10:38:28;;;;;;;0.20;0.20;;;13.40;99.90;;;;;;4927052;29;20051;-77
2022/10/13 10:41:12;;;;;;;0.10;0.10;;;13.40;99.90;;;;;;4932086;28;20079;-77
2022/10/13 10:43:44;;;;;;;0.20;0.20;;;13.40;99.90;;;;;;4944299;29;20039;-78
2022/10/13 10:46:24;;;;;;;0.20;0.20;;;13.40;99.90;;;;;;4962743;28;20082;-78
2022/10/13 10:49:13;;;;;;;0.20;0.20;;;13.40;99.90;;;;;;4931676;28;20510;-76
2022/10/13 10:51:38;;;;;;;0.20;0.20;;;13.40;99.90;;;;;;4958861;28;20048;-77
2022/10/13 10:54:27;;;;;;;0.20;0.20;;;13.40;99.90;;;;;;4940075;28;20126;-77
2022/10/13 10:57:14;;;;;;;0.20;0.20;;;13.40;99.90;;;;;;4948913;28;20521;-77
2022/10/13 11:00:04;;;;;;;0.20;0.20;;;13.40;99.90;;;;;;4944172;28;20089;-77
2022/10/13 11:02:51;;;;;;;0.40;0.40;;;13.40;99.90;;;;;;4935962;28;20055;-77
2022/10/13 11:05:17;;;;;;;0.20;0.20;;;13.40;99.90;;;;;;4947818;28;20446;-77
2022/10/13 11:07:45;;;;;;;0.20;0.20;;;13.40;99.90;;;;;;4940403;29;20054;-77
2022/10/13 11:10:16;;;;;;;0.20;0.20;;;13.40;99.90;;;;;;4945033;28;20538;-77
2022/10/13 11:12:51;;;;;;;0.20;0.20;;;13.40;99.90;;;;;;4923841;29;20051;-76
2022/10/13 11:15:26;;;;;;;0.20;0.20;;;13.50;99.90;;;;;;4954870;29;20583;-76
2022/10/13 11:17:52;;;;;;;0.10;0.10;;;13.50;99.90;;;;;;4938745;29;20039;-77
2022/10/13 11:20:21;;;;;;;0.10;0.10;;;13.50;99.90;;;;;;4917827;29;20052;-77
2022/10/13 11:22:58;;;;;;;0.10;0.10;;;13.50;99.90;;;;;;4914158;29;20142;-76
2022/10/13 11:25:34;;;;;;;0.10;0.10;;;13.60;99.90;;;;;;4905971;29;20044;-77
2022/10/13 11:28:20;;;;;;;0.10;0.10;;;13.70;99.90;;;;;;4940385;29;20058;-77
2022/10/13 11:30:54;;;;;;;0.20;0.20;;;13.70;99.90;;;;;;4932293;29;20043;-77
2022/10/13 11:33:38;;;;;;;0.10;0.10;;;13.80;99.90;;;;;;4914235;29;20039;-77
2022/10/13 11:36:34;;;;;;;0.20;0.20;;;13.80;99.90;;;;;;4901923;29;20591;-77
2022/10/13 11:39:26;;;;;;;0.10;0.10;;;13.80;99.90;;;;;;4913984;29;20039;-77
2022/10/13 11:42:18;;;;;;;0.20;0.20;;;13.80;99.90;;;;;;4913030;29;20048;-76
2022/10/13 11:45:07;;;;;;;0.15;0.15;;;13.90;99.90;;;;;;4913608;29;20448;-77
2022/10/13 11:47:45;;;;;;;0.10;0.10;;;13.90;99.90;;;;;;4936365;29;20055;-77
2022/10/13 11:50:14;;;;;;;0.20;0.20;;;13.90;99.90;;;;;;4921073;29;20127;-76
2022/10/13 11:53:06;;;;;;;0.17;0.17;;;13.90;99.90;;;;;;4918684;29;20050;-77
2022/10/13 11:55:53;;;;;;;0.20;0.20;;;13.90;99.90;;;;;;4943457;29;20058;-76
2022/10/13 11:58:31;;;;;;;0.10;0.10;;;13.90;99.90;;;;;;4937735;29;20043;-76
2022/10/13 12:01:05;;;;;;;0.10;0.10;;;14.10;99.90;;;;;;4912104;29;20052;-77
2022/10/13 12:03:43;;;;;;;0.17;0.17;;;14.00;99.90;;;;;;4924723;29;20111;-76
2022/10/13 12:06:34;;;;;;;0.20;0.20;;;14.00;99.90;;;;;;4914599;29;20506;-76
2022/10/13 12:09:20;;;;;;;0.13;0.13;;;14.00;99.90;;;;;;4940196;29;20043;-77
2022/10/13 12:11:57;;;;;;;0.13;0.13;;;14.00;99.90;;;;;;4942524;28;20047;-77
2022/10/13 12:14:39;;;;;;;0.10;0.10;;;14.00;99.90;;;;;;4941157;28;20499;-76
2022/10/13 12:17:21;;;;;;;0.20;0.20;;;14.10;99.90;;;;;;4937847;28;20038;-76
2022/10/13 12:19:59;;;;;;;0.20;0.20;;;14.10;99.90;;;;;;4942612;28;20146;-77
2022/10/13 12:22:28;;;;;;;0.15;0.15;;;14.20;99.90;;;;;;4940673;28;20044;-77
2022/10/13 12:25:02;;;;;;;0.10;0.10;;;14.20;99.90;;;;;;4928951;28;20047;-77
2022/10/13 12:27:31;;;;;;;0.20;0.20;;;14.30;99.90;;;;;;4942948;28;20070;-76
2022/10/13 12:29:58;;;;;;;0.10;0.10;;;14.30;99.90;;;;;;4948344;28;20042;-76
2022/10/13 12:32:34;;;;;;;0.10;0.10;;;14.30;99.90;;;;;;4921730;28;20047;-77
2022/10/13 12:35:17;;;;;;;0.20;0.20;;;14.30;99.90;;;;;;4937471;28;20058;-77
2022/10/13 12:37:46;;;;;;;0.10;0.10;;;14.30;99.90;;;;;;4950025;28;20395;-77
2022/10/13 12:40:14;;;;;;;0.20;0.20;;;14.30;99.90;;;;;;4933005;29;20047;-77
2022/10/13 12:42:41;;;;;;;0.10;0.10;;;14.30;99.90;;;;;;4944868;28;20160;-77
2022/10/13 12:45:13;;;;;;;0.10;0.10;;;14.40;99.90;;;;;;4954585;28;20107;-77
2022/10/13 12:47:46;;;;;;;0.10;0.10;;;14.40;99.90;;;;;;4927010;28;20055;-77
2022/10/13 12:50:26;;;;;;;0.10;0.10;;;14.40;99.90;;;;;;4945703;28;20118;-77
2022/10/13 12:53:17;;;;;;;0.15;0.15;;;14.40;99.90;;;;;;4942758;28;20067;-77
2022/10/13 12:56:02;;;;;;;0.10;0.10;;;14.40;99.90;;;;;;4938142;28;20059;-76
2022/10/13 12:58:35;;;;;;;0.10;0.10;;;14.40;99.90;;;;;;4937038;28;20053;-76
2022/10/13 13:01:06;;;;;;;0.10;0.10;;;14.40;99.90;;;;;;4936204;28;20474;-77
2022/10/13 13:03:32;;;;;;;;;;;14.40;99.90;;;;;;4942708;28;20050;-77
2022/10/13 13:06:13;;;;;;;0.10;0.10;;;14.40;99.90;;;;;;4934772;28;19926;-77
2022/10/13 13:08:42;;;;;;;0.20;0.20;;;14.40;99.90;;;;;;4922356;29;20511;-77
2022/10/13 13:11:23;;;;;;;0.20;0.20;;;14.40;99.90;;;;;;4944906;28;20462;-77
2022/10/13 13:13:49;;;;;;;0.20;0.20;;;14.40;99.90;;;;;;4937767;28;20495;-77
2022/10/13 13:16:22;;;;;;;0.10;0.10;;;14.30;99.90;;;;;;4933514;28;20039;-77
2022/10/13 13:18:52;;;;;;;0.20;0.20;;;14.40;99.90;;;;;;4933289;28;20162;-77
2022/10/13 13:21:18;;;;;;;0.20;0.20;;;14.60;99.90;;;;;;4924005;28;20043;-77
2022/10/13 13:23:48;;;;;;;0.20;0.20;;;14.50;99.90;;;;;;4945266;28;20042;-78
2022/10/13 13:26:19;;;;;;;0.10;0.10;;;14.50;99.90;;;;;;4945537;28;20062;-77
2022/10/13 13:28:59;;;;;;;0.20;0.20;;;14.50;99.90;;;;;;4950689;28;20039;-77
2022/10/13 13:31:25;;;;;;;0.20;0.20;;;14.50;99.90;;;;;;4934132;28;20043;-77
2022/10/13 13:33:51;;;;;;;0.20;0.20;;;14.50;99.90;;;;;;4940957;28;20051;-78
2022/10/13 13:36:22;;;;;;;0.10;0.10;;;14.50;99.90;;;;;;4955433;28;20054;-78
2022/10/13 13:38:52;;;;;;;0.10;0.10;;;14.50;99.90;;;;;;4934755;28;20047;-77
2022/10/13 13:41:18;;;;;;;0.10;0.10;;;14.50;99.90;;;;;;4926299;28;20047;-77
2022/10/13 13:43:47;;;;;;;0.20;0.20;;;14.50;99.90;;;;;;4938201;28;20122;-78
2022/10/13 13:46:18;;;;;;;0.20;0.20;;;14.50;99.90;;;;;;4945054;28;20048;-78
2022/10/13 13:48:44;;;;;;;0.20;0.20;;;14.50;99.90;;;;;;4935813;28;20091;-77
2022/10/13 13:51:10;;;;;;;0.10;0.10;;;14.60;99.90;;;;;;4953268;28;20205;-77
2022/10/13 13:53:36;;;;;;;0.10;0.10;;;14.60;99.90;;;;;;4948419;28;20071;-78
2022/10/13 13:56:03;;;;;;;0.20;0.20;;;14.60;99.90;;;;;;4949436;28;20102;-77
2022/10/13 13:58:29;;;;;;;0.20;0.20;;;14.60;99.90;;;;;;4937695;28;20092;-77
2022/10/13 14:00:54;;;;;;;0.10;0.10;;;14.60;99.90;;;;;;4944691;28;20039;-77
2022/10/13 14:03:20;;;;;;;0.10;0.10;;;14.60;99.90;;;;;;4950532;28;20038;-78
2022/10/13 14:05:46;;;;;;;0.20;0.20;;;14.60;99.90;;;;;;4957118;28;20063;-79
2022/10/13 14:08:14;;;;;;;0.20;0.20;;;14.60;99.90;;;;;;4947685;28;20051;-78
2022/10/13 14:10:40;;;;;;;0.20;0.20;;;14.60;99.90;;;;;;4930856;28;20118;-77
2022/10/13 14:13:06;;;;;;;0.20;0.20;;;14.60;99.90;;;;;;4918893;29;20043;-77
2022/10/13 14:15:31;;;;;;;0.17;0.17;;;14.60;99.90;;;;;;4930160;29;20088;-78
2022/10/13 14:17:57;;;;;;;0.20;0.20;;;14.50;99.90;;;;;;4903808;29;20147;-78
2022/10/13 14:20:26;;;;;;;0.20;0.20;;;14.60;99.90;;;;;;4937482;29;20044;-79
2022/10/13 14:22:51;;;;;;;0.20;0.20;;;14.50;99.90;;;;;;4945136;29;20055;-79
2022/10/13 14:25:17;;;;;;;0.20;0.20;;;14.50;99.90;;;;;;4920495;29;20044;-78
2022/10/13 14:27:45;;;;;;;0.20;0.20;;;14.50;99.90;;;;;;4926220;29;20048;-78
2022/10/13 14:30:11;;;;;;;0.17;0.17;;;14.50;99.90;;;;;;4925717;29;20061;-79
2022/10/13 14:32:37;;;;;;;0.10;0.10;;;14.50;99.90;;;;;;4928958;29;20054;-78
2022/10/13 14:35:04;;;;;;;0.20;0.20;;;14.50;99.90;;;;;;4913736;29;20051;-78
2022/10/13 14:37:30;;;;;;;0.17;0.17;;;14.50;99.90;;;;;;4931352;29;20474;-79
2022/10/13 14:39:55;;;;;;;0.20;0.20;;;14.50;99.90;;;;;;4937524;29;20035;-77
2022/10/13 14:42:21;;;;;;;0.17;0.17;;;14.50;99.90;;;;;;4954536;29;20044;-79
2022/10/13 14:44:46;;;;;;;0.10;0.10;;;14.50;99.90;;;;;;4911544;29;20047;-77
2022/10/13 14:47:13;;;;;;;0.20;0.20;;;14.50;99.90;;;;;;4891735;29;20079;-78
2022/10/13 14:49:38;;;;;;;0.10;0.10;;;14.40;99.90;;;;;;4901603;29;20064;-79
2022/10/13 14:52:04;;;;;;;0.20;0.20;;;14.50;99.90;;;;;;4898820;29;20040;-78
2022/10/13 14:54:30;;;;;;;0.10;0.10;;;14.40;99.90;;;;;;4921068;29;20052;-78
2022/10/13 14:56:58;;;;;;;0.10;0.10;;;14.40;99.90;;;;;;4926941;29;20047;-78
2022/10/13 14:59:25;;;;;;;0.17;0.17;;;14.50;99.90;;;;;;4896425;29;20051;-78
2022/10/13 15:01:50;;;;;;;0.10;0.10;;;14.40;99.90;;;;;;4917726;29;20628;-78
2022/10/13 15:04:16;;;;;;;0.20;0.20;;;14.40;99.90;;;;;;4927584;29;20055;-80
2022/10/13 15:06:41;;;;;;;0.20;0.20;;;14.40;99.90;;;;;;4922398;29;20098;-79
2022/10/13 15:09:11;;;;;;;0.20;0.20;;;14.40;99.90;;;;;;4934683;28;20118;-79
2022/10/13 15:11:37;;;;;;;0.20;0.20;;;14.40;99.90;;;;;;4924225;28;20056;-79
2022/10/13 15:14:03;;;;;;;0.20;0.20;;;14.40;99.90;;;;;;4941541;28;20049;-77
2022/10/13 15:16:32;;;;;;;0.20;0.20;;;14.40;99.90;;;;;;4944683;28;20039;-78
2022/10/13 15:18:58;;;;;;;0.20;0.20;;;14.40;99.90;;;;;;4922435;28;20075;-78
2022/10/13 15:21:24;;;;;;;0.20;0.20;;;14.40;99.90;;;;;;4953849;28;20042;-78
2022/10/13 15:23:49;;;;;;;0.20;0.20;;;14.50;99.90;;;;;;4933399;28;20103;-76
2022/10/13 15:26:17;;;;;;;0.20;0.20;;;14.40;99.90;;;;;;4943462;28;20035;-77
2022/10/13 15:28:45;;;;;;;0.20;0.20;;;14.40;99.90;;;;;;4964094;28;20043;-78
2022/10/13 15:31:11;;;;;;;0.20;0.20;;;14.50;99.90;;;;;;4932081;28;20169;-78
2022/10/13 15:33:38;;;;;;;0.20;0.20;;;14.50;99.90;;;;;;4935239;28;20138;-78
2022/10/13 15:36:03;;;;;;;0.10;0.10;;;14.50;99.90;;;;;;4934924;28;20047;-76
2022/10/13 15:38:32;;;;;;;0.20;0.20;;;14.50;99.90;;;;;;4918813;29;20577;-78
2022/10/13 15:41:08;;;;;;;0.13;0.13;;;14.50;99.90;;;;;;4943654;28;20525;-77
2022/10/13 15:43:37;;;;;;;0.10;0.10;;;14.50;99.90;;;;;;4946254;28;20399;-76
2022/10/13 15:46:05;;;;;;;0.20;0.20;;;14.50;99.90;;;;;;4935168;28;20114;-78
2022/10/13 15:48:32;;;;;;;0.10;0.10;;;14.40;99.90;;;;;;4948851;28;20406;-77
2022/10/13 15:50:57;;;;;;;0.10;0.10;;;14.40;99.90;;;;;;4943656;29;20073;-77
2022/10/13 15:53:23;;;;;;;0.10;0.10;;;14.30;99.90;;;;;;4948894;28;20055;-78
2022/10/13 15:55:49;;;;;;;0.20;0.20;;;14.40;99.90;;;;;;4945300;28;20039;-78
2022/10/13 15:58:15;;;;;;;0.10;0.10;;;14.40;99.90;;;;;;4946583;28;20494;-77
2022/10/13 16:00:41;;;;;;;0.10;0.10;;;14.40;99.90;;;;;;4927761;29;20052;-80
2022/10/13 16:03:14;;;;;;;0.17;0.17;;;14.40;99.90;;;;;;4939555;28;20048;-78
2022/10/13 16:05:42;;;;;;;0.17;0.17;;;14.40;99.90;;;;;;4918063;28;20058;-78
2022/10/13 16:08:07;;;;;;;0.20;0.20;;;14.50;99.90;;;;;;4940747;28;20581;-77
2022/10/13 16:10:33;;;;;;;0.20;0.20;;;14.40;99.90;;;;;;4943066;28;20051;-77
2022/10/13 16:12:59;;;;;;;0.20;0.20;;;14.50;99.90;;;;;;4926986;23;20111;-76
2022/10/13 16:18:40;;;;;;;0.20;0.20;;;14.50;99.90;;;;;;4950218;28;20051;-78
2022/10/13 16:21:18;;;;;;;0.20;0.20;;;14.50;99.90;;;;;;4943587;28;20055;-77
2022/10/13 16:23:44;;;;;;;0.15;0.15;;;14.90;99.90;;;;;;4981507;28;20042;-77
2022/10/13 16:26:10;;;;;;;0.15;0.15;;;14.40;99.90;;;;;;4957352;28;20261;-77
2022/10/13 16:28:40;;;;;;;0.20;0.20;;;15.20;99.90;;;;;;4936910;28;20114;-76
2022/10/13 16:31:22;;;;;;;0.10;0.10;;;14.40;99.90;;;;;;4942519;28;20047;-77
2022/10/13 16:33:55;;;;;;;0.10;0.10;;;14.70;99.90;;;;;;4959299;28;20140;-78
2022/10/13 16:36:43;;;;;;;0.20;0.20;;;13.30;99.90;;;;;;4946868;28;20423;-77
2022/10/13 16:39:09;;;;;;;0.20;0.20;;;14.30;99.90;;;;;;4942079;28;20082;-78
2022/10/13 16:41:34;;;;;;;0.13;0.13;;;14.30;99.90;;;;;;4964803;28;20074;-78
2022/10/13 16:44:06;;;;;;;0.13;0.13;;;14.30;99.90;;;;;;4963486;28;20046;-78
2022/10/13 16:46:32;;;;;;;0.20;0.20;;;14.20;99.90;;;;;;4942660;28;20039;-78
2022/10/13 16:49:01;;;;;;;0.20;0.20;;;14.20;99.90;;;;;;4949197;28;20050;-78
2022/10/13 16:51:28;;;;;;;0.10;0.10;;;15.00;99.90;;;;;;4940105;28;20046;-78
2022/10/13 16:53:59;;;;;;;0.20;0.20;;;14.60;99.90;;;;;;4963775;28;20043;-78
2022/10/13 16:56:34;;;;;;;0.20;0.20;;;14.10;99.90;;;;;;4969896;28;20051;-78
2022/10/13 16:59:24;;;;;;;0.20;0.20;;;14.10;99.90;;;;;;4936130;28;20487;-78
2022/10/13 17:02:02;;;;;;;0.10;0.10;;;14.10;99.90;;;;;;4939485;28;20502;-77
2022/10/13 17:04:45;;;;;;;0.20;0.20;;;14.10;99.90;;;;;;4943257;28;20061;-77
2022/10/13 17:07:26;;;;;;;0.10;0.10;;;14.10;99.90;;;;;;4950201;28;20054;-78
2022/10/13 17:10:02;;;;;;;0.20;0.20;;;14.70;99.90;;;;;;4940548;28;20039;-78
2022/10/13 17:12:27;;;;;;;0.10;0.10;;;14.10;99.90;;;;;;4947254;28;20054;-79
2022/10/13 17:15:11;;;;;;;0.20;0.20;;;14.30;99.90;;;;;;4964371;28;20047;-77
2022/10/13 17:17:55;;;;;;;0.20;0.20;;;14.10;99.90;;;;;;4957758;28;20335;-78
2022/10/13 17:20:30;;;;;;;0.20;0.20;;;14.50;99.90;;;;;;4952274;28;20079;-79
2022/10/13 17:23:05;;;;;;;0.10;0.10;;;14.10;99.90;;;;;;4941487;28;20509;-78
2022/10/13 17:25:42;;;;;;;0.20;0.20;;;14.00;99.90;;;;;;4967341;28;20406;-79
2022/10/13 17:28:11;;;;;;;0.10;0.10;;;14.00;99.90;;;;;;4957679;28;20047;-78
2022/10/13 17:30:37;;;;;;;0.20;0.20;;;14.00;99.90;;;;;;4942039;28;20050;-79
2022/10/13 17:33:15;;;;;;;0.15;0.15;;;14.00;99.90;;;;;;4903858;23;20052;-79
2022/10/13 17:35:40;;;;;;;0.20;0.20;;;14.00;99.90;;;;;;4904961;29;20113;-79
2022/10/13 17:38:06;;;;;;;0.20;0.20;;;14.00;99.90;;;;;;4928582;29;20111;-78
2022/10/13 17:40:34;;;;;;;0.20;0.20;;;14.00;99.90;;;;;;4914095;29;20039;-78
2022/10/13 17:43:01;;;;;;;0.20;0.20;;;13.90;99.90;;;;;;4915483;29;20484;-79
2022/10/13 17:45:27;;;;;;;0.20;0.20;;;13.90;99.90;;;;;;4911094;29;20152;-79
2022/10/13 17:47:52;;;;;;;0.10;0.10;;;14.20;99.90;;;;;;4914420;29;20176;-79
2022/10/13 17:50:18;;;;;;;0.10;0.10;;;13.90;99.90;;;;;;4915035;29;20559;-78
2022/10/13 17:52:44;;;;;;;0.20;0.20;;;13.90;99.90;;;;;;4916369;29;20051;-78
2022/10/13 17:55:13;;;;;;;0.20;0.20;;;13.90;99.90;;;;;;4914450;29;20254;-78
2022/10/13 17:57:41;;;;;;;0.20;0.20;;;13.80;99.90;;;;;;4913129;29;20308;-78
2022/10/13 18:00:07;;;;;;;0.20;0.20;;;13.80;99.90;;;;;;4911396;29;20047;-78
2022/10/13 18:02:33;;;;;;;0.20;0.20;;;13.80;99.90;;;;;;4911462;29;20436;-78
2022/10/13 18:04:58;;;;;;;0.17;0.17;;;13.80;99.90;;;;;;4932530;29;20040;-79
2022/10/13 18:07:24;;;;;;;0.20;0.20;;;13.80;99.90;;;;;;4936912;29;20383;-78
2022/10/13 18:09:51;;;;;;;0.20;0.20;;;13.80;99.90;;;;;;4923551;29;20044;-78
2022/10/13 18:12:20;;;;;;;0.20;0.20;;;13.70;99.90;;;;;;4929220;29;20036;-80
2022/10/13 18:14:46;;;;;;;0.20;0.20;;;13.70;99.90;;;;;;4914196;29;20131;-77
2022/10/13 18:17:11;;;;;;;0.20;0.20;;;13.70;99.90;;;;;;4912973;29;20118;-77
2022/10/13 18:19:37;;;;;;;0.20;0.20;;;13.70;99.90;;;;;;4912890;29;20052;-77
2022/10/13 18:22:03;;;;;;;0.20;0.20;;;13.70;99.90;;;;;;4911251;29;20040;-77